createdAt,value
2023-04-21T04:39:08.961Z,7.22
2023-04-21T04:41:38.008Z,7.23
2023-04-21T04:44:06.331Z,7.25
2023-04-21T04:46:34.460Z,7.27
2023-04-21T04:49:02.590Z,7.26
2023-04-21T04:51:32.871Z,7.23
2023-04-21T04:54:01.192Z,7.23
2023-04-21T04:56:30.524Z,7.22
2023-04-21T04:58:58.466Z,7.22
2023-04-21T05:01:30.367Z,7.20
2023-04-21T05:03:58.870Z,7.22
2023-04-21T05:06:26.999Z,7.24
2023-04-21T05:08:55.079Z,7.26
2023-04-21T05:11:23.249Z,7.27
2023-04-21T05:13:51.461Z,7.28
2023-04-21T05:16:19.432Z,7.29
2023-04-21T05:18:51.048Z,7.29
2023-04-21T05:21:27.959Z,7.30
2023-04-21T05:23:56.486Z,7.32
2023-04-21T05:26:28.036Z,7.32
2023-04-21T05:28:56.774Z,7.35
2023-04-21T05:31:30.881Z,7.38
2023-04-21T05:34:18.085Z,7.40
2023-04-21T05:37:22.419Z,7.43
2023-04-21T05:40:10.209Z,7.44
2023-04-21T05:43:53.249Z,7.46
2023-04-21T05:53:55.654Z,7.51
2023-04-21T05:56:35.807Z,7.53
2023-04-21T05:59:06.423Z,7.56
2023-04-21T06:01:51.372Z,7.60
2023-04-21T06:04:22.226Z,7.64
2023-04-21T06:06:51.101Z,7.68
2023-04-21T06:09:20.962Z,7.73
2023-04-21T06:11:50.626Z,7.78
2023-04-21T06:14:19.608Z,7.84
2023-04-21T06:16:48.295Z,7.89
2023-04-21T06:19:16.652Z,7.95
2023-04-21T06:21:50.201Z,8.03
2023-04-21T06:24:26.335Z,8.11
2023-04-21T06:26:55.243Z,8.15
2023-04-21T06:29:25.352Z,8.16
2023-04-21T06:31:53.546Z,8.19
2023-04-21T06:34:21.984Z,8.24
2023-04-21T06:36:50.493Z,8.28
2023-04-21T06:39:18.490Z,8.29
2023-04-21T06:41:47.008Z,8.31
2023-04-21T06:44:18.660Z,8.32
2023-04-21T06:46:47.515Z,8.35
2023-04-21T06:49:15.789Z,8.37
2023-04-21T06:51:47.043Z,8.38
2023-04-21T06:54:19.991Z,8.39
2023-04-21T06:56:52.837Z,8.41
2023-04-21T06:59:23.513Z,8.39
2023-04-21T07:01:52.923Z,8.39
2023-04-21T07:04:21.898Z,8.39
2023-04-21T07:06:50.070Z,8.41
2023-04-21T07:09:18.754Z,8.41
2023-04-21T07:11:47.024Z,8.44
2023-04-21T07:14:17.295Z,8.45
2023-04-21T07:17:24.811Z,8.41
2023-04-21T07:20:29.178Z,8.39
2023-04-21T07:22:59.022Z,8.41
2023-04-21T07:25:39.993Z,8.43
2023-04-21T07:28:16.906Z,8.45
2023-04-21T07:31:04.687Z,8.47
2023-04-21T07:33:46.883Z,8.47
2023-04-21T07:36:29.736Z,8.46
2023-04-21T07:39:01.683Z,8.45
2023-04-21T07:41:30.668Z,8.43
2023-04-21T07:43:59.366Z,8.42
2023-04-21T07:46:31.306Z,8.42
2023-04-21T07:49:00.115Z,8.44
2023-04-21T07:51:29.674Z,8.45
2023-04-21T07:53:57.700Z,8.47
2023-04-21T07:56:25.828Z,8.49
2023-04-21T07:58:53.865Z,8.50
2023-04-21T08:01:23.878Z,8.50
2023-04-21T08:03:52.529Z,8.54
2023-04-21T08:06:28.383Z,8.56
2023-04-21T08:08:57.048Z,8.56
2023-04-21T08:11:25.596Z,8.56
2023-04-21T08:13:54.133Z,8.58
2023-04-21T08:16:22.341Z,8.61
2023-04-21T08:18:51.062Z,8.63
2023-04-21T08:21:25.409Z,8.64
2023-04-21T08:23:56.130Z,8.65
2023-04-21T08:26:25.548Z,8.67
2023-04-21T08:28:55.004Z,8.70
2023-04-21T08:31:23.641Z,8.72
2023-04-21T08:34:01.088Z,8.75
2023-04-21T08:36:32.092Z,8.79
2023-04-21T08:39:02.622Z,8.76
2023-04-21T08:41:30.780Z,8.77
2023-04-21T08:43:59.020Z,8.79
2023-04-21T08:46:27.891Z,8.80
2023-04-21T08:48:56.715Z,8.81
2023-04-21T08:51:27.973Z,8.85
2023-04-21T08:53:56.794Z,8.90
2023-04-21T08:56:25.635Z,8.97
2023-04-21T08:58:54.132Z,9.01
2023-04-21T09:02:09.690Z,9.03
2023-04-21T09:05:10.063Z,9.08
2023-04-21T09:08:05.883Z,9.08
2023-04-21T09:10:34.849Z,9.09
2023-04-21T09:13:16.343Z,9.11
2023-04-21T09:16:58.170Z,9.11
2023-04-21T09:19:36.387Z,9.08
2023-04-21T09:22:41.431Z,9.09
2023-04-21T09:25:50.928Z,9.10
2023-04-21T09:28:25.524Z,9.14
2023-04-21T09:30:56.223Z,9.15
2023-04-21T09:33:31.017Z,9.16
2023-04-21T09:36:03.399Z,9.15
2023-04-21T09:38:32.076Z,9.15
2023-04-21T09:41:00.133Z,9.17
2023-04-21T09:43:28.702Z,9.19
2023-04-21T09:45:58.233Z,9.21
2023-04-21T09:48:27.542Z,9.25
2023-04-21T09:53:29.159Z,9.42
2023-04-21T09:56:00.740Z,9.48
2023-04-21T09:58:29.370Z,9.52
2023-04-21T10:00:59.151Z,9.58
2023-04-21T10:03:39.765Z,9.60
2023-04-21T10:06:12.697Z,9.60
2023-04-21T10:08:41.018Z,9.59
2023-04-21T10:11:09.435Z,9.61
2023-04-21T10:13:37.474Z,9.62
2023-04-21T10:16:08.573Z,9.67
2023-04-21T10:18:39.138Z,9.72
2023-04-21T10:21:08.364Z,9.74
2023-04-21T10:23:44.607Z,9.72
2023-04-21T10:26:13.230Z,9.67
2023-04-21T10:28:45.570Z,9.63
2023-04-21T10:31:30.135Z,9.64
2023-04-21T10:34:13.613Z,9.64
2023-04-21T10:37:00.068Z,9.64
2023-04-21T10:39:36.598Z,9.66
2023-04-21T10:42:13.845Z,9.66
2023-04-21T10:44:48.077Z,9.64
2023-04-21T10:47:16.175Z,9.67
2023-04-21T10:49:44.444Z,9.73
2023-04-21T10:52:16.528Z,9.78
2023-04-21T10:54:46.704Z,9.81
2023-04-21T10:57:18.428Z,9.80
2023-04-21T10:59:47.234Z,9.79
2023-04-21T11:02:16.031Z,9.81
2023-04-21T11:04:50.035Z,9.83
2023-04-21T11:07:19.035Z,9.85
2023-04-21T11:09:47.508Z,9.85
2023-04-21T11:12:18.278Z,9.83
2023-04-21T11:14:48.259Z,9.84
2023-04-21T11:17:17.789Z,9.86
2023-04-21T11:19:46.405Z,9.88
2023-04-21T11:22:14.519Z,9.90
2023-04-21T11:24:46.131Z,9.93
2023-04-21T11:27:18.063Z,9.95
2023-04-21T11:29:46.497Z,9.97
2023-04-21T11:32:14.816Z,9.99
2023-04-21T11:34:42.936Z,10.02
2023-04-21T11:37:14.399Z,10.02
2023-04-21T11:39:43.848Z,9.98
2023-04-21T11:42:12.254Z,9.97
2023-04-21T11:44:41.050Z,9.96
2023-04-21T11:47:12.426Z,9.96
2023-04-21T11:49:44.060Z,9.97
2023-04-21T11:52:12.668Z,9.98
2023-04-21T11:54:40.877Z,9.99
2023-04-21T11:57:08.981Z,10.00
2023-04-21T11:59:37.082Z,9.99
2023-04-21T12:02:05.211Z,9.96
2023-04-21T12:04:34.671Z,9.94
